Argora, Idaho
Current Conditions -  °F | °C
As of 1:53 PM on Saturday 22 Nov 2014 (Local Time) from KRXE Reporting Station
Overcast Overcast  
Wind Chill: 27°   Ceiling: 1100
Heat Index: 37°   Visibility: 10mi
Dew Point: 33°   Wind: 17mph
Humidity: 86%   Direction: 220°SW
Pressure: 29.6"   Gusts: 28mph
Location:  44.2396°N, 112.579°W
Report Text: KRXE 222053Z AUTO 22015G24KT 10SM BKN011 OVC017 03/01 A2960 RMK AO2 PK WND 22028/2043 SLP030 T00280006 55004
Loading
Personal Weather Stations






























Interactive Weather Map New forecast layout! Learn more

10-Day Weather Forecast

Advertisements
Track Severe Weather on mobile